createdAt,value
2023-02-04T00:00:37.382Z,2.30
2023-02-04T00:03:06.464Z,2.80
2023-02-04T00:05:34.581Z,2.40
2023-02-04T00:08:02.528Z,2.23
2023-02-04T00:10:31.002Z,2.70
2023-02-04T00:13:00.558Z,2.30
2023-02-04T00:15:28.439Z,2.77
2023-02-04T00:17:56.369Z,2.20
2023-02-04T00:20:24.889Z,2.60
2023-02-04T00:22:52.843Z,2.27
2023-02-04T00:25:20.756Z,2.73
2023-02-04T00:27:48.633Z,2.27
2023-02-04T00:30:18.572Z,2.50
2023-02-04T00:32:46.491Z,2.37
2023-02-04T00:35:14.741Z,2.50
2023-02-04T00:37:42.628Z,2.90
2023-02-04T00:40:12.034Z,2.33
2023-02-04T00:42:40.061Z,2.50
2023-02-04T00:45:08.625Z,2.60
2023-02-04T00:47:38.064Z,2.50
2023-02-04T00:50:06.804Z,2.50
2023-02-04T00:52:34.787Z,2.50
2023-02-04T00:55:02.750Z,2.20
2023-02-04T00:57:30.636Z,2.23
2023-02-04T00:59:58.489Z,2.07
2023-02-04T01:02:26.410Z,2.10
2023-02-04T01:04:55.637Z,2.17
2023-02-04T01:07:23.615Z,2.20
2023-02-04T01:09:51.655Z,2.33
2023-02-04T01:12:19.567Z,2.67
2023-02-04T01:14:47.569Z,2.00
2023-02-04T01:17:15.504Z,2.30
2023-02-04T01:19:43.398Z,2.13
2023-02-04T01:22:13.167Z,2.33
2023-02-04T01:24:41.090Z,2.60
2023-02-04T01:27:09.000Z,2.67
2023-02-04T01:29:36.850Z,2.60
2023-02-04T01:32:04.982Z,2.73
2023-02-04T01:34:32.964Z,2.60
2023-02-04T01:37:00.845Z,2.90
2023-02-04T01:39:30.112Z,2.43
2023-02-04T01:41:58.097Z,2.57
2023-02-04T01:44:26.077Z,2.80
2023-02-04T01:46:54.128Z,2.43
2023-02-04T01:49:22.310Z,2.80
2023-02-04T01:51:50.354Z,3.00
2023-02-04T01:54:18.664Z,3.07
2023-02-04T01:56:49.928Z,2.80
2023-02-04T01:59:19.031Z,3.13
2023-02-04T02:01:48.218Z,2.83
2023-02-04T02:04:18.720Z,3.20
2023-02-04T02:06:50.480Z,3.00
2023-02-04T02:09:18.519Z,3.33
2023-02-04T02:11:48.089Z,3.33
2023-02-04T02:14:16.361Z,3.13
2023-02-04T02:16:45.954Z,3.20
2023-02-04T02:19:18.725Z,3.70
2023-02-04T02:21:51.172Z,3.57
2023-02-04T02:24:31.565Z,3.10
2023-02-04T02:27:02.404Z,3.20
2023-02-04T02:29:30.872Z,3.53
2023-02-04T02:32:00.228Z,3.60
2023-02-04T02:34:30.308Z,3.10
2023-02-04T02:36:59.048Z,3.20
2023-02-04T02:39:27.368Z,2.87
2023-02-04T02:41:57.378Z,3.40
2023-02-04T02:44:27.580Z,3.60
2023-02-04T02:46:56.126Z,3.50
2023-02-04T02:49:24.187Z,3.13
2023-02-04T02:51:52.140Z,3.47
2023-02-04T02:54:24.269Z,3.07
2023-02-04T02:56:52.728Z,3.20
2023-02-04T02:59:22.199Z,2.83
2023-02-04T03:01:54.891Z,3.20
2023-02-04T03:04:23.648Z,3.47
2023-02-04T03:06:53.045Z,3.17
2023-02-04T03:09:21.514Z,2.80
2023-02-04T03:11:49.907Z,3.37
2023-02-04T03:14:18.844Z,2.97
2023-02-04T03:16:49.256Z,3.30
2023-02-04T03:19:17.547Z,3.07
2023-02-04T03:21:46.521Z,3.20
2023-02-04T03:24:14.509Z,3.20
2023-02-04T03:26:42.514Z,3.33
2023-02-04T03:29:11.359Z,2.97
2023-02-04T03:31:39.453Z,3.40
2023-02-04T03:34:08.800Z,3.30
2023-02-04T03:36:36.709Z,3.10
2023-02-04T03:39:05.195Z,3.37
2023-02-04T03:41:33.093Z,3.00
2023-02-04T03:44:01.001Z,3.03
2023-02-04T03:46:29.017Z,3.23
2023-02-04T03:48:56.865Z,3.37
2023-02-04T03:51:26.410Z,3.37
2023-02-04T03:53:54.408Z,3.30
2023-02-04T03:56:22.516Z,3.43
2023-02-04T03:58:50.873Z,2.90
2023-02-04T04:01:18.933Z,3.33
2023-02-04T04:03:46.872Z,3.50
2023-02-04T04:06:14.715Z,3.07
2023-02-04T04:08:44.032Z,3.10
2023-02-04T04:11:11.976Z,3.70
2023-02-04T04:13:39.888Z,2.93
2023-02-04T04:16:09.113Z,3.20
2023-02-04T04:18:37.410Z,3.27
2023-02-04T04:21:05.538Z,3.20
2023-02-04T04:23:33.525Z,3.10
2023-02-04T04:26:02.878Z,2.83
2023-02-04T04:28:30.768Z,2.90
2023-02-04T04:30:58.810Z,3.00
2023-02-04T04:33:26.753Z,2.93
2023-02-04T04:35:54.628Z,3.13
2023-02-04T04:38:22.530Z,2.83
2023-02-04T04:40:50.391Z,3.13
2023-02-04T04:43:19.693Z,3.23
2023-02-04T04:45:47.652Z,3.10
2023-02-04T04:48:15.549Z,3.23
2023-02-04T04:50:43.452Z,3.20
2023-02-04T04:53:12.103Z,3.33
2023-02-04T04:55:40.412Z,3.33
2023-02-04T04:58:09.265Z,3.43
2023-02-04T05:00:38.574Z,3.23
2023-02-04T05:03:06.474Z,3.53
2023-02-04T05:05:39.858Z,2.23
2023-02-04T05:08:10.956Z,0.97
2023-02-04T05:10:38.868Z,1.03
2023-02-04T05:13:07.034Z,0.60
2023-02-04T05:15:35.063Z,0.80
2023-02-04T05:18:04.828Z,0.57
2023-02-04T05:20:33.337Z,0.70
2023-02-04T05:23:03.113Z,0.53
2023-02-04T05:25:31.884Z,0.50
2023-02-04T05:27:59.866Z,0.70
2023-02-04T05:30:27.850Z,1.13
2023-02-04T05:32:56.078Z,0.90
2023-02-04T05:35:25.425Z,0.63
2023-02-04T05:38:02.635Z,0.67
2023-02-04T05:40:31.020Z,0.63
2023-02-04T05:42:59.086Z,0.80
2023-02-04T05:45:26.972Z,0.70
2023-02-04T05:47:54.894Z,0.80
2023-02-04T05:50:22.789Z,0.57
2023-02-04T05:52:52.154Z,0.67
2023-02-04T05:55:20.189Z,0.60
2023-02-04T05:57:48.018Z,0.90
2023-02-04T06:00:16.412Z,0.57
2023-02-04T06:02:44.465Z,0.80
2023-02-04T06:05:12.673Z,0.63
2023-02-04T06:07:40.634Z,0.70
2023-02-04T06:10:12.045Z,0.80
2023-02-04T06:12:40.077Z,0.80
2023-02-04T06:15:10.038Z,1.40
2023-02-04T06:17:38.099Z,0.73
2023-02-04T06:20:07.572Z,0.80
2023-02-04T06:22:36.591Z,0.80
2023-02-04T06:25:04.756Z,0.50
2023-02-04T06:27:34.350Z,0.97
2023-02-04T06:30:02.752Z,1.40
2023-02-04T06:32:30.905Z,1.50
2023-02-04T06:34:59.157Z,1.27
2023-02-04T06:37:27.206Z,0.83
2023-02-04T06:39:58.152Z,0.90
2023-02-04T06:42:26.854Z,1.10
2023-02-04T06:44:58.038Z,0.63
2023-02-04T06:47:28.205Z,0.80
2023-02-04T06:52:49.296Z,1.07
2023-02-04T06:55:19.169Z,1.00
2023-02-04T06:57:47.409Z,1.20
2023-02-04T07:00:18.882Z,1.00
2023-02-04T07:02:47.177Z,0.73
2023-02-04T07:05:16.744Z,1.33
2023-02-04T07:08:03.585Z,0.80
2023-02-04T07:10:33.082Z,0.77
2023-02-04T07:13:02.344Z,0.77
2023-02-04T07:18:14.959Z,1.27
2023-02-04T07:20:44.629Z,1.03
2023-02-04T07:23:19.740Z,1.00
2023-02-04T07:25:49.746Z,1.10
2023-02-04T07:28:18.347Z,0.73
2023-02-04T07:30:48.410Z,1.13
2023-02-04T07:33:18.406Z,1.40
2023-02-04T07:35:48.792Z,1.07
2023-02-04T07:38:17.281Z,1.20
2023-02-04T07:40:45.555Z,0.77
2023-02-04T07:43:13.870Z,0.70
2023-02-04T07:45:58.081Z,0.90
2023-02-04T07:48:28.008Z,1.17
2023-02-04T07:50:56.930Z,0.60
2023-02-04T07:53:25.774Z,0.90
2023-02-04T07:55:56.981Z,1.13
2023-02-04T07:58:35.092Z,0.83
2023-02-04T08:01:03.276Z,0.80
2023-02-04T08:06:52.217Z,1.00
2023-02-04T08:09:20.300Z,1.13
2023-02-04T08:11:49.776Z,0.90
2023-02-04T08:14:31.816Z,0.83
2023-02-04T08:23:10.837Z,0.77
2023-02-04T08:25:41.232Z,0.70
2023-02-04T08:28:09.659Z,1.13
2023-02-04T08:30:39.284Z,0.67
2023-02-04T08:33:17.583Z,0.90
2023-02-04T08:36:01.208Z,1.10
2023-02-04T08:38:29.797Z,1.00
2023-02-04T08:40:58.251Z,1.00
2023-02-04T08:43:40.140Z,0.90
2023-02-04T08:46:08.739Z,1.37
2023-02-04T08:48:37.558Z,1.20
2023-02-04T08:51:08.381Z,1.30
2023-02-04T08:53:51.051Z,1.00
2023-02-04T08:56:23.787Z,1.30
2023-02-04T08:58:57.915Z,1.40
2023-02-04T09:04:17.575Z,1.30
2023-02-04T09:06:54.845Z,1.43
2023-02-04T09:09:26.445Z,1.80
2023-02-04T09:14:38.683Z,1.07
2023-02-04T09:17:07.758Z,1.60
2023-02-04T09:19:39.144Z,1.80
2023-02-04T09:25:09.655Z,1.40
2023-02-04T09:27:38.370Z,1.10
2023-02-04T09:30:08.009Z,1.50
2023-02-04T09:32:55.133Z,1.30
2023-02-04T09:35:25.553Z,1.77
2023-02-04T09:41:38.006Z,2.77
2023-02-04T09:47:37.162Z,1.27
2023-02-04T09:53:23.987Z,1.07
2023-02-04T09:58:52.290Z,2.03
2023-02-04T10:01:26.550Z,1.27
2023-02-04T10:04:17.392Z,1.90
2023-02-04T10:07:08.308Z,1.70
2023-02-04T10:12:55.477Z,1.80
2023-02-04T10:18:43.129Z,3.57
2023-02-04T10:21:31.902Z,1.60
2023-02-04T10:30:12.724Z,0.57
2023-02-04T10:32:46.355Z,1.10
2023-02-04T10:35:33.587Z,1.37
2023-02-04T10:44:07.233Z,1.60
2023-02-04T10:46:35.991Z,0.80
2023-02-04T10:49:19.864Z,1.33
2023-02-04T10:51:57.905Z,1.20
2023-02-04T10:54:34.140Z,0.77
2023-02-04T10:57:21.508Z,0.90
2023-02-04T10:59:53.001Z,1.00
2023-02-04T11:02:44.212Z,1.10
2023-02-04T11:05:17.137Z,0.90
2023-02-04T11:07:47.006Z,1.10
2023-02-04T11:10:17.851Z,1.30
2023-02-04T11:12:49.081Z,1.10
2023-02-04T11:15:50.990Z,2.43
2023-02-04T11:18:33.604Z,1.00
2023-02-04T11:21:04.633Z,1.90
2023-02-04T11:23:38.777Z,1.20
2023-02-04T11:26:15.201Z,1.87
2023-02-04T11:32:00.568Z,0.93
2023-02-04T11:34:35.821Z,1.33
2023-02-04T11:37:31.796Z,0.90
2023-02-04T11:40:08.111Z,1.27
2023-02-04T11:42:58.735Z,0.63
2023-02-04T11:45:47.184Z,2.27
2023-02-04T12:01:39.746Z,0.63
2023-02-04T12:04:09.396Z,0.80
2023-02-04T12:06:38.426Z,0.37
2023-02-04T12:09:07.928Z,0.57
2023-02-04T12:11:36.080Z,0.90
2023-02-04T12:14:10.548Z,0.40
2023-02-04T12:16:46.450Z,0.80
2023-02-04T12:19:17.385Z,0.50
2023-02-04T12:21:45.645Z,0.60
2023-02-04T12:24:13.705Z,1.07
2023-02-04T12:26:42.356Z,0.73
2023-02-04T12:29:10.391Z,0.50
2023-02-04T12:31:38.437Z,0.33
2023-02-04T12:34:07.779Z,0.93
2023-02-04T12:36:35.732Z,0.53
2023-02-04T12:39:03.978Z,0.90
2023-02-04T12:41:31.956Z,0.70
2023-02-04T12:44:01.394Z,0.90
2023-02-04T12:46:29.974Z,0.70
2023-02-04T12:48:58.777Z,0.30
2023-02-04T12:51:29.603Z,0.57
2023-02-04T12:53:57.619Z,0.80
2023-02-04T12:56:25.836Z,0.30
2023-02-04T12:58:53.784Z,0.30
2023-02-04T13:01:21.848Z,0.50
2023-02-04T13:03:49.862Z,0.40
2023-02-04T13:06:17.980Z,0.40
2023-02-04T13:08:47.339Z,0.50
2023-02-04T13:11:15.433Z,0.90
2023-02-04T13:13:43.840Z,0.50
2023-02-04T13:16:12.693Z,0.50
2023-02-04T13:18:48.181Z,0.60
2023-02-04T13:21:16.298Z,0.50
2023-02-04T13:23:46.274Z,0.40
2023-02-04T13:26:16.432Z,0.40
2023-02-04T13:28:44.508Z,0.50
2023-02-04T13:31:13.525Z,0.50
2023-02-04T13:33:47.527Z,0.60
2023-02-04T13:41:56.745Z,0.60
2023-02-04T13:44:25.124Z,0.80
2023-02-04T13:46:53.248Z,0.73
2023-02-04T13:49:21.806Z,1.03
2023-02-04T13:51:49.995Z,1.43
2023-02-04T13:54:18.031Z,0.43
2023-02-04T13:56:46.014Z,0.93
2023-02-04T13:59:15.337Z,1.53
2023-02-04T14:01:43.599Z,0.90
2023-02-04T14:04:11.580Z,3.97
2023-02-04T14:06:43.661Z,2.70
2023-02-04T14:09:13.138Z,2.60
2023-02-04T14:11:41.937Z,1.20
2023-02-04T14:14:10.332Z,2.73
2023-02-04T14:16:40.268Z,2.20
2023-02-04T14:19:09.612Z,2.17
2023-02-04T14:21:37.600Z,2.60
2023-02-04T14:24:05.726Z,2.43
2023-02-04T14:26:34.199Z,2.40
2023-02-04T14:29:02.217Z,2.03
2023-02-04T14:31:30.320Z,0.80
2023-02-04T14:33:59.821Z,0.47
2023-02-04T14:36:28.368Z,1.80
2023-02-04T14:38:56.929Z,1.30
2023-02-04T14:41:26.609Z,1.80
2023-02-04T14:43:54.825Z,1.87
2023-02-04T14:46:23.421Z,1.90
2023-02-04T14:48:52.704Z,0.60
2023-02-04T14:51:22.165Z,0.80
2023-02-04T14:53:50.741Z,0.77
2023-02-04T14:56:19.621Z,1.00
2023-02-04T14:58:47.664Z,0.80
2023-02-04T15:01:37.713Z,1.20
2023-02-04T15:04:06.292Z,0.93
2023-02-04T15:06:36.461Z,1.33
2023-02-04T15:09:20.924Z,1.10
2023-02-04T15:11:49.250Z,0.80
2023-02-04T15:14:17.276Z,1.27
2023-02-04T15:16:48.088Z,1.70
2023-02-04T15:19:16.985Z,1.40
2023-02-04T15:21:46.792Z,1.20
2023-02-04T15:24:15.020Z,1.07
2023-02-04T15:26:47.435Z,1.50
2023-02-04T15:29:15.775Z,1.07
2023-02-04T15:32:02.675Z,1.20
2023-02-04T15:34:48.896Z,1.00
2023-02-04T15:37:19.333Z,0.80
2023-02-04T15:39:48.458Z,0.90
2023-02-04T15:42:16.480Z,0.70
2023-02-04T15:44:45.122Z,1.00
2023-02-04T15:47:13.449Z,1.40
2023-02-04T15:49:41.858Z,0.90
2023-02-04T15:52:19.436Z,1.07
2023-02-04T15:54:53.737Z,2.80
2023-02-04T15:57:21.965Z,1.17
2023-02-04T15:59:51.009Z,1.13
2023-02-04T16:02:21.386Z,1.33
2023-02-04T16:04:50.347Z,1.20
2023-02-04T16:07:18.619Z,0.73
2023-02-04T16:09:47.083Z,1.20
2023-02-04T16:12:16.699Z,1.20
2023-02-04T16:14:44.916Z,1.10
2023-02-04T16:17:13.324Z,1.30
2023-02-04T16:19:41.530Z,0.90
2023-02-04T16:22:09.764Z,1.20
2023-02-04T16:24:38.748Z,1.37
2023-02-04T16:27:07.480Z,1.30
2023-02-04T16:29:37.226Z,1.00
2023-02-04T16:32:05.727Z,1.27
2023-02-04T16:34:33.886Z,1.33
2023-02-04T16:37:04.919Z,1.13
2023-02-04T16:39:34.091Z,1.63
2023-02-04T16:42:06.064Z,1.73
2023-02-04T16:44:42.028Z,1.37
2023-02-04T16:47:12.308Z,1.50
2023-02-04T16:49:40.649Z,1.80
2023-02-04T16:52:08.699Z,2.20
2023-02-04T16:54:37.609Z,1.63
2023-02-04T16:57:06.785Z,2.23
2023-02-04T16:59:35.766Z,1.17
2023-02-04T17:02:04.025Z,2.10
2023-02-04T17:04:34.734Z,1.20
2023-02-04T17:07:02.725Z,1.60
2023-02-04T17:09:30.760Z,1.43
2023-02-04T17:11:59.170Z,1.50
2023-02-04T17:14:27.251Z,1.90
2023-02-04T17:16:55.232Z,1.23
2023-02-04T17:19:25.631Z,1.40
2023-02-04T17:21:54.955Z,1.40
2023-02-04T17:24:24.598Z,1.17
2023-02-04T17:26:52.691Z,1.33
2023-02-04T17:29:22.994Z,1.80
2023-02-04T17:31:52.713Z,1.60
2023-02-04T17:34:20.962Z,1.20
2023-02-04T17:36:49.443Z,1.80
2023-02-04T17:39:18.805Z,1.10
2023-02-04T17:41:46.692Z,1.23
2023-02-04T17:44:19.105Z,1.53
2023-02-04T17:46:47.797Z,1.10
2023-02-04T17:49:16.148Z,1.70
2023-02-04T17:51:44.137Z,1.70
2023-02-04T17:54:13.369Z,1.70
2023-02-04T17:56:42.652Z,1.30
2023-02-04T17:59:11.496Z,1.40
2023-02-04T18:01:39.632Z,1.70
2023-02-04T18:04:12.788Z,1.53
2023-02-04T18:06:40.979Z,1.27
2023-02-04T18:09:16.350Z,1.37
2023-02-04T18:11:46.499Z,0.97
2023-02-04T18:14:18.131Z,1.20
2023-02-04T18:16:47.058Z,1.37
2023-02-04T18:19:20.002Z,1.00
2023-02-04T18:21:48.504Z,1.10
2023-02-04T18:24:19.618Z,1.40
2023-02-04T18:26:51.032Z,1.17
2023-02-04T18:29:38.080Z,0.90
2023-02-04T18:32:15.715Z,1.10
2023-02-04T18:34:45.997Z,0.93
2023-02-04T18:37:32.110Z,0.93
2023-02-04T18:40:23.582Z,1.23
2023-02-04T18:43:02.639Z,5.53
2023-02-04T18:45:32.189Z,1.00
2023-02-04T18:48:02.002Z,4.93
2023-02-04T18:50:33.205Z,1.10
2023-02-04T18:53:03.057Z,4.67
2023-02-04T18:55:36.347Z,4.80
2023-02-04T18:58:26.073Z,1.10
2023-02-04T19:00:59.485Z,2.10
2023-02-04T19:03:29.351Z,1.70
2023-02-04T19:05:59.488Z,9.03
2023-02-04T19:08:30.355Z,3.30
2023-02-04T19:10:59.398Z,1.20
2023-02-04T19:13:41.436Z,1.60
2023-02-04T19:16:23.739Z,1.50
2023-02-04T19:18:54.323Z,1.83
2023-02-04T19:21:29.256Z,4.13
2023-02-04T19:24:07.559Z,2.80
2023-02-04T19:26:37.512Z,1.90
2023-02-04T19:29:47.005Z,4.27
2023-02-04T19:32:26.345Z,1.37
2023-02-04T19:34:55.890Z,0.73
2023-02-04T19:37:26.917Z,0.63
2023-02-04T19:39:57.637Z,0.80
2023-02-04T19:42:32.822Z,2.10
2023-02-04T19:45:03.041Z,0.77
2023-02-04T19:47:55.403Z,1.00
2023-02-04T19:50:27.257Z,1.47
2023-02-04T19:53:02.371Z,0.80
2023-02-04T19:55:33.851Z,1.20
2023-02-04T19:58:13.461Z,2.27
2023-02-04T20:00:47.588Z,0.87
2023-02-04T20:03:38.655Z,0.87
2023-02-04T20:06:35.713Z,0.73
2023-02-04T20:09:08.382Z,0.80
2023-02-04T20:11:50.721Z,0.60
2023-02-04T20:14:25.164Z,0.63
2023-02-04T20:16:57.670Z,0.60
2023-02-04T20:19:38.276Z,1.17
2023-02-04T20:22:41.380Z,0.83
2023-02-04T20:25:39.994Z,0.77
2023-02-04T20:28:23.023Z,1.00
2023-02-04T20:30:52.445Z,0.63
2023-02-04T20:33:28.194Z,0.90
2023-02-04T20:36:29.309Z,0.80
2023-02-04T20:39:08.444Z,0.87
2023-02-04T20:41:38.548Z,0.90
2023-02-04T20:44:16.512Z,0.60
2023-02-04T20:46:44.966Z,0.87
2023-02-04T20:49:24.607Z,1.10
2023-02-04T20:52:00.425Z,0.40
2023-02-04T20:54:31.356Z,0.50
2023-02-04T20:57:15.764Z,0.67
2023-02-04T20:59:45.262Z,1.10
2023-02-04T21:02:18.850Z,0.73
2023-02-04T21:04:54.214Z,0.90
2023-02-04T21:07:24.887Z,0.30
2023-02-04T21:09:53.001Z,0.63
2023-02-04T21:15:04.468Z,0.73
2023-02-04T21:17:33.361Z,0.83
2023-02-04T21:20:02.103Z,0.57
2023-02-04T21:22:31.439Z,1.90
2023-02-04T21:24:59.386Z,1.17
2023-02-04T21:27:27.378Z,1.00
2023-02-04T21:29:56.665Z,0.70
2023-02-04T21:32:25.864Z,0.83
2023-02-04T21:34:53.875Z,1.13
2023-02-04T21:37:21.790Z,0.83
2023-02-04T21:39:51.187Z,0.80
2023-02-04T21:42:19.280Z,1.03
2023-02-04T21:44:47.179Z,1.10
2023-02-04T21:47:17.304Z,0.90
2023-02-04T21:49:46.111Z,1.10
2023-02-04T21:52:15.091Z,0.90
2023-02-04T21:54:42.966Z,1.03
2023-02-04T21:57:12.766Z,0.70
2023-02-04T21:59:42.875Z,0.60
2023-02-04T22:02:11.013Z,0.70
2023-02-04T22:04:38.887Z,0.80
2023-02-04T22:07:07.014Z,0.73
2023-02-04T22:09:34.931Z,0.93
2023-02-04T22:12:04.388Z,0.90
2023-02-04T22:14:33.835Z,0.60
2023-02-04T22:17:02.014Z,0.70
2023-02-04T22:19:29.952Z,0.77
2023-02-04T22:21:57.914Z,0.70
2023-02-04T22:24:25.762Z,0.77
2023-02-04T22:26:53.861Z,0.77
2023-02-04T22:29:25.003Z,1.03
2023-02-04T22:31:54.368Z,0.90
2023-02-04T22:34:25.247Z,0.80
2023-02-04T22:36:53.523Z,0.60
2023-02-04T22:39:21.445Z,0.70
2023-02-04T22:41:49.367Z,0.93
2023-02-04T22:44:17.376Z,1.20
2023-02-04T22:46:47.450Z,0.90
2023-02-04T22:49:17.049Z,0.70
2023-02-04T22:51:44.958Z,1.10
2023-02-04T22:54:12.962Z,1.17
2023-02-04T22:56:42.036Z,1.00
2023-02-04T22:59:09.974Z,1.07
2023-02-04T23:01:37.995Z,1.20
2023-02-04T23:04:06.576Z,0.93
2023-02-04T23:06:36.001Z,1.00
2023-02-04T23:09:03.942Z,0.93
2023-02-04T23:11:31.837Z,0.50
2023-02-04T23:13:59.780Z,0.90
2023-02-04T23:16:27.785Z,0.70
2023-02-04T23:18:55.840Z,1.10
2023-02-04T23:21:24.104Z,0.90
2023-02-04T23:23:53.844Z,1.00
2023-02-04T23:26:22.388Z,1.10
2023-02-04T23:28:50.556Z,0.87
2023-02-04T23:31:18.646Z,1.23
2023-02-04T23:33:46.615Z,1.17
2023-02-04T23:36:14.538Z,1.00
2023-02-04T23:38:42.495Z,1.00
2023-02-04T23:41:11.924Z,0.97
2023-02-04T23:43:39.835Z,1.30
2023-02-04T23:46:09.102Z,0.83
2023-02-04T23:48:37.278Z,0.60
2023-02-04T23:51:07.557Z,1.30
2023-02-04T23:53:35.485Z,1.27
2023-02-04T23:56:04.329Z,1.00
2023-02-04T23:58:33.926Z,1.30
